Time;durP1;ratioP1;P1;durP2;ratioP2;P2;SDS_P1;SDS_P2;PMS_P1;PMS_P2;Temp;Humidity;BMP_temperature;BMP_pressure;BME280_temperature;BME280_humidity;BME280_pressure;Samples;Min_cycle;Max_cycle;Signal;HPM_P1;HPM_P2
2023/06/21 00:00:15;;;;;;;15.43;13.90;;;20.50;99.90;;;;;;5053948;28;20032;-73
2023/06/21 00:02:45;;;;;;;18.13;13.95;;;20.50;99.90;;;;;;5053846;28;20035;-73
2023/06/21 00:05:11;;;;;;;15.65;14.07;;;20.40;99.90;;;;;;5053892;28;20032;-73
2023/06/21 00:07:41;;;;;;;16.55;14.77;;;20.40;99.90;;;;;;5035967;28;20457;-73
2023/06/21 00:10:10;;;;;;;16.45;14.75;;;20.40;99.90;;;;;;5035898;28;20087;-73
2023/06/21 00:12:35;;;;;;;18.40;14.85;;;20.40;99.90;;;;;;5053734;28;20491;-73
2023/06/21 00:15:02;;;;;;;16.98;15.15;;;20.40;99.90;;;;;;5053783;28;20029;-73
2023/06/21 00:17:28;;;;;;;19.05;15.55;;;20.40;99.90;;;;;;5053729;28;20025;-73
2023/06/21 00:19:56;;;;;;;16.95;15.25;;;20.40;99.90;;;;;;5035507;28;20136;-74
2023/06/21 00:22:22;;;;;;;20.45;15.05;;;20.40;99.90;;;;;;5053720;28;20033;-73
2023/06/21 00:24:51;;;;;;;19.42;15.93;;;20.40;99.90;;;;;;5053684;28;20100;-73
2023/06/21 00:27:18;;;;;;;20.58;15.95;;;20.30;99.90;;;;;;5053843;28;20431;-73
2023/06/21 00:29:44;;;;;;;16.92;15.15;;;20.30;99.90;;;;;;5053610;28;20021;-73
2023/06/21 00:32:09;;;;;;;18.65;15.18;;;20.30;99.90;;;;;;5055340;28;20464;-74
2023/06/21 00:34:35;;;;;;;17.23;15.20;;;20.30;99.90;;;;;;5057524;28;20033;-74
2023/06/21 00:37:04;;;;;;;18.52;15.07;;;20.20;99.90;;;;;;5040277;28;20467;-74
2023/06/21 00:39:30;;;;;;;19.27;15.60;;;20.20;99.90;;;;;;5057656;28;20025;-73
2023/06/21 00:41:56;;;;;;;18.40;16.23;;;20.20;99.90;;;;;;5057651;28;20029;-73
2023/06/21 00:44:22;;;;;;;18.27;16.38;;;20.20;99.90;;;;;;5057728;28;20021;-73
2023/06/21 00:46:49;;;;;;;18.92;16.08;;;20.10;99.90;;;;;;5057521;28;20051;-74
2023/06/21 00:49:15;;;;;;;18.23;16.42;;;20.10;99.90;;;;;;5057170;28;20560;-74
2023/06/21 00:51:42;;;;;;;17.10;15.40;;;20.10;99.90;;;;;;5039510;28;20087;-73
2023/06/21 00:54:15;;;;;;;17.20;15.48;;;20.10;99.90;;;;;;5057394;28;20113;-73
2023/06/21 00:56:45;;;;;;;18.70;15.68;;;20.10;99.90;;;;;;5057415;28;20096;-74
2023/06/21 00:59:11;;;;;;;16.55;14.90;;;20.00;99.90;;;;;;5039364;28;20032;-73
2023/06/21 01:01:37;;;;;;;19.52;16.02;;;20.00;99.90;;;;;;5057264;28;20025;-74
2023/06/21 01:04:04;;;;;;;17.55;15.73;;;20.00;99.90;;;;;;5057184;28;20111;-73
2023/06/21 01:07:03;;;;;;;17.15;15.38;;;20.00;99.90;;;;;;5057047;28;20463;-73
2023/06/21 01:09:59;;;;;;;17.77;15.57;;;20.00;99.90;;;;;;5057009;28;20414;-73
2023/06/21 01:12:30;;;;;;;18.92;15.38;;;20.00;99.90;;;;;;5057026;28;20033;-73
2023/06/21 01:15:12;;;;;;;16.92;15.13;;;20.00;99.90;;;;;;5039191;28;20113;-74
2023/06/21 01:17:40;;;;;;;18.73;15.65;;;20.00;99.90;;;;;;5056893;28;20021;-74
2023/06/21 01:20:17;;;;;;;17.37;15.17;;;20.00;99.90;;;;;;5056532;28;20465;-73
2023/06/21 01:22:50;;;;;;;16.73;15.13;;;20.00;99.90;;;;;;5038925;28;20075;-74
2023/06/21 01:25:45;;;;;;;17.95;16.02;;;20.00;99.90;;;;;;5038678;28;20033;-73
2023/06/21 01:28:33;;;;;;;20.70;16.35;;;20.10;99.90;;;;;;5056810;28;20021;-74
2023/06/21 01:31:01;;;;;;;25.30;17.88;;;20.20;99.90;;;;;;5056671;28;20104;-73
2023/06/21 01:33:28;;;;;;;22.77;18.65;;;20.20;99.90;;;;;;5058260;28;20039;-74
2023/06/21 01:35:54;;;;;;;29.00;19.27;;;20.30;99.90;;;;;;5056647;28;20027;-73
2023/06/21 01:38:21;;;;;;;22.55;19.70;;;20.40;99.90;;;;;;5038801;28;20052;-73
2023/06/21 01:40:46;;;;;;;21.30;19.08;;;20.40;99.90;;;;;;5056472;28;20053;-74
2023/06/21 01:43:15;;;;;;;21.95;19.67;;;20.30;99.90;;;;;;5056851;28;20067;-75
2023/06/21 01:45:41;;;;;;;20.83;18.45;;;20.40;99.90;;;;;;5038550;28;20024;-74
2023/06/21 01:48:07;;;;;;;20.95;18.83;;;20.30;99.90;;;;;;5056658;28;20533;-74
2023/06/21 01:50:34;;;;;;;21.42;19.23;;;20.30;99.90;;;;;;5056721;28;20185;-74
2023/06/21 01:53:01;;;;;;;21.08;18.75;;;20.20;99.90;;;;;;5038291;28;20032;-74
2023/06/21 01:55:28;;;;;;;21.40;19.20;;;20.20;99.90;;;;;;5056596;28;20032;-74
2023/06/21 01:57:56;;;;;;;22.10;19.48;;;20.20;99.90;;;;;;5056316;28;20480;-74
2023/06/21 02:00:22;;;;;;;21.95;19.30;;;20.10;99.90;;;;;;5056611;28;20021;-74
2023/06/21 02:02:55;;;;;;;21.60;19.30;;;20.10;99.90;;;;;;5038879;28;20450;-74
2023/06/21 02:05:21;;;;;;;22.27;20.00;;;20.10;99.90;;;;;;5056409;28;20029;-74
2023/06/21 02:07:48;;;;;;;21.50;18.50;;;20.20;99.90;;;;;;5056605;28;20048;-75
2023/06/21 02:10:15;;;;;;;21.85;19.65;;;20.20;99.90;;;;;;5038397;28;20460;-74
2023/06/21 02:12:42;;;;;;;21.50;19.20;;;20.10;99.90;;;;;;5056285;28;20029;-74
2023/06/21 02:15:10;;;;;;;23.27;19.77;;;20.10;99.90;;;;;;5038689;28;20027;-74
2023/06/21 02:17:36;;;;;;;21.70;19.50;;;20.10;99.90;;;;;;5056193;28;20100;-74
2023/06/21 02:20:03;;;;;;;22.23;19.85;;;20.10;99.90;;;;;;5055914;28;20116;-74
2023/06/21 02:22:28;;;;;;;21.23;18.95;;;20.10;99.90;;;;;;5056021;28;20033;-74
2023/06/21 02:24:55;;;;;;;21.75;19.38;;;20.10;99.90;;;;;;5055808;28;20362;-74
2023/06/21 02:27:21;;;;;;;22.85;19.65;;;20.10;99.90;;;;;;5038148;28;20119;-74
2023/06/21 02:29:47;;;;;;;22.52;19.58;;;20.20;99.90;;;;;;5038077;28;20119;-74
2023/06/21 02:32:12;;;;;;;19.80;17.80;;;20.20;99.90;;;;;;5055571;28;20032;-75
2023/06/21 02:34:38;;;;;;;21.05;18.83;;;20.20;99.90;;;;;;5055595;28;20029;-74
2023/06/21 02:37:04;;;;;;;21.35;19.10;;;20.20;99.90;;;;;;5055502;28;20025;-74
2023/06/21 02:39:29;;;;;;;22.20;20.00;;;20.20;99.90;;;;;;5037559;28;20021;-75
2023/06/21 02:41:55;;;;;;;20.65;18.55;;;20.20;99.90;;;;;;5055696;28;20057;-74
2023/06/21 02:44:21;;;;;;;20.95;18.98;;;20.20;99.90;;;;;;5055097;28;20483;-75
2023/06/21 02:46:46;;;;;;;22.98;18.63;;;20.30;99.90;;;;;;5055587;28;20083;-74
2023/06/21 02:49:12;;;;;;;22.20;19.00;;;20.20;99.90;;;;;;5055003;28;20042;-74
2023/06/21 02:51:37;;;;;;;21.52;19.33;;;20.20;99.90;;;;;;5055332;28;20025;-74
2023/06/21 02:54:04;;;;;;;20.60;18.38;;;20.20;99.90;;;;;;5055115;28;20021;-74
2023/06/21 02:56:32;;;;;;;20.17;18.23;;;20.20;99.90;;;;;;5037095;28;20025;-74
2023/06/21 02:58:58;;;;;;;22.58;19.08;;;20.30;99.90;;;;;;5037539;28;20096;-74
2023/06/21 03:01:23;;;;;;;19.80;17.88;;;20.30;99.90;;;;;;5037110;28;20049;-74
2023/06/21 03:03:49;;;;;;;23.58;18.42;;;20.30;99.90;;;;;;5037103;28;20033;-74
2023/06/21 03:06:15;;;;;;;21.42;18.85;;;20.30;99.90;;;;;;5037015;28;20025;-74
2023/06/21 03:08:41;;;;;;;20.63;17.90;;;20.30;99.90;;;;;;5036957;28;20058;-74
2023/06/21 03:11:08;;;;;;;19.73;17.75;;;20.30;99.90;;;;;;5037227;28;20025;-74
2023/06/21 03:13:37;;;;;;;19.45;17.35;;;20.30;99.90;;;;;;5054736;28;20060;-74
2023/06/21 03:16:04;;;;;;;23.30;18.23;;;20.30;99.90;;;;;;5054460;28;20110;-74
2023/06/21 03:18:29;;;;;;;21.13;18.88;;;20.30;99.90;;;;;;5054661;28;20117;-74
2023/06/21 03:20:55;;;;;;;22.83;18.33;;;20.30;99.90;;;;;;5054647;28;20053;-74
2023/06/21 03:23:20;;;;;;;19.33;17.48;;;20.30;99.90;;;;;;5036676;28;20033;-74
2023/06/21 03:25:46;;;;;;;20.92;18.83;;;20.30;99.90;;;;;;5036715;28;20021;-74
2023/06/21 03:28:12;;;;;;;20.60;18.50;;;20.30;99.90;;;;;;5054535;28;20075;-74
2023/06/21 03:30:37;;;;;;;22.42;18.48;;;20.30;99.90;;;;;;5036986;28;20055;-74
2023/06/21 03:33:03;;;;;;;22.10;18.48;;;20.30;99.90;;;;;;5054478;28;20083;-74
2023/06/21 03:35:29;;;;;;;21.75;18.95;;;20.30;99.90;;;;;;5036547;28;20028;-74
2023/06/21 03:37:55;;;;;;;21.52;18.67;;;20.40;99.90;;;;;;5054293;28;20099;-74
2023/06/21 03:40:21;;;;;;;21.33;19.00;;;20.40;99.90;;;;;;5054445;28;20029;-74
2023/06/21 03:42:46;;;;;;;19.40;17.48;;;20.40;99.90;;;;;;5036377;28;20386;-74
2023/06/21 03:45:12;;;;;;;21.27;19.05;;;20.40;99.90;;;;;;5036243;28;20032;-74
2023/06/21 03:47:39;;;;;;;21.20;18.05;;;20.40;99.90;;;;;;5053827;28;20087;-74
2023/06/21 03:50:06;;;;;;;23.40;17.45;;;20.50;99.90;;;;;;5053809;28;20146;-74
2023/06/21 03:52:32;;;;;;;20.75;18.52;;;20.50;99.90;;;;;;5053936;28;20032;-74
2023/06/21 03:54:58;;;;;;;20.15;18.15;;;20.40;99.90;;;;;;5054074;28;20029;-74
2023/06/21 03:57:24;;;;;;;20.88;18.58;;;20.50;99.90;;;;;;5053752;28;20021;-74
2023/06/21 03:59:49;;;;;;;19.65;17.45;;;20.50;99.90;;;;;;5036276;28;20119;-74
2023/06/21 04:02:15;;;;;;;20.83;18.35;;;20.50;99.90;;;;;;5053956;28;20025;-75
2023/06/21 04:04:41;;;;;;;21.88;19.02;;;20.50;99.90;;;;;;5054159;28;20029;-74
2023/06/21 04:07:07;;;;;;;21.30;18.33;;;20.60;99.90;;;;;;5035178;28;20571;-74
2023/06/21 04:09:33;;;;;;;20.75;18.55;;;20.60;99.90;;;;;;5054223;28;20491;-73
2023/06/21 04:11:59;;;;;;;21.00;17.40;;;20.70;99.90;;;;;;5053687;28;20033;-67
2023/06/21 04:14:25;;;;;;;20.67;18.55;;;20.70;99.90;;;;;;5053894;28;20023;-68
2023/06/21 04:16:51;;;;;;;19.95;17.58;;;20.70;99.90;;;;;;5036009;28;20031;-67
2023/06/21 04:19:16;;;;;;;18.85;16.48;;;20.70;99.90;;;;;;5035822;28;20115;-68
2023/06/21 04:21:42;;;;;;;23.73;18.48;;;20.70;99.90;;;;;;5053533;28;20027;-72
2023/06/21 04:24:08;;;;;;;22.05;17.73;;;20.80;99.90;;;;;;5053675;28;20021;-73
2023/06/21 04:26:33;;;;;;;23.48;17.67;;;20.80;99.90;;;;;;5053628;28;20032;-73
2023/06/21 04:29:02;;;;;;;19.83;17.77;;;20.80;99.90;;;;;;5053608;28;20032;-73
2023/06/21 04:31:28;;;;;;;19.83;17.40;;;20.90;99.90;;;;;;5053609;28;20025;-73
2023/06/21 04:33:55;;;;;;;18.52;16.38;;;21.00;99.90;;;;;;5053485;28;20044;-74
2023/06/21 04:36:20;;;;;;;18.42;16.40;;;21.10;99.90;;;;;;5035617;28;20510;-74
2023/06/21 04:38:48;;;;;;;18.08;16.13;;;21.20;99.90;;;;;;5053650;28;20108;-74
2023/06/21 04:41:17;;;;;;;20.35;16.27;;;21.30;99.90;;;;;;5035474;28;20084;-73
2023/06/21 04:43:43;;;;;;;20.13;16.02;;;21.30;99.90;;;;;;5035480;28;20469;-74
2023/06/21 04:46:09;;;;;;;18.67;15.38;;;21.50;99.90;;;;;;5053933;28;20155;-74
2023/06/21 04:48:36;;;;;;;16.80;15.20;;;21.60;99.90;;;;;;5053770;28;20112;-66
2023/06/21 04:51:02;;;;;;;18.48;14.55;;;21.80;99.90;;;;;;5053729;28;20032;-67
2023/06/21 04:53:30;;;;;;;16.98;15.27;;;21.90;99.90;;;;;;5035607;28;20033;-67
2023/06/21 04:55:57;;;;;;;16.48;14.07;;;22.00;99.90;;;;;;5053339;28;20075;-66
2023/06/21 04:58:23;;;;;;;19.40;14.52;;;22.10;99.90;;;;;;5053294;28;20112;-67
2023/06/21 05:00:49;;;;;;;16.55;14.82;;;22.30;99.90;;;;;;5053570;28;20049;-66
2023/06/21 05:03:15;;;;;;;17.30;15.00;;;22.40;99.90;;;;;;5053233;28;20036;-66
2023/06/21 05:05:41;;;;;;;16.42;14.68;;;22.50;99.90;;;;;;5053414;28;20028;-67
2023/06/21 05:08:07;;;;;;;17.67;14.95;;;22.60;99.90;;;;;;5053170;28;20024;-66
2023/06/21 05:10:33;;;;;;;16.05;14.35;;;22.70;99.90;;;;;;5053175;28;20040;-66
2023/06/21 05:12:58;;;;;;;16.40;14.63;;;22.80;99.90;;;;;;5053109;28;20062;-66
2023/06/21 05:15:24;;;;;;;16.60;13.98;;;22.90;99.90;;;;;;5053344;28;20029;-66
2023/06/21 05:17:49;;;;;;;16.15;14.60;;;23.00;99.90;;;;;;5054320;28;20091;-66
2023/06/21 05:20:17;;;;;;;16.02;14.50;;;23.00;99.90;;;;;;5038874;28;20350;-73
2023/06/21 05:22:43;;;;;;;16.73;14.20;;;23.00;99.90;;;;;;5056506;28;20115;-73
2023/06/21 05:25:09;;;;;;;17.70;15.40;;;23.00;99.90;;;;;;5056503;28;20473;-75
2023/06/21 05:27:35;;;;;;;16.83;13.95;;;23.00;99.90;;;;;;5038939;28;20032;-74
2023/06/21 05:30:01;;;;;;;19.52;14.05;;;23.00;99.90;;;;;;5038534;28;20021;-72
2023/06/21 05:32:27;;;;;;;16.02;14.27;;;23.00;99.90;;;;;;5056750;28;20041;-71
2023/06/21 05:34:53;;;;;;;18.38;13.45;;;23.10;99.90;;;;;;5056450;28;20063;-76
2023/06/21 05:37:18;;;;;;;16.83;14.38;;;23.20;99.90;;;;;;5056855;28;20052;-72
2023/06/21 05:39:50;;;;;;;16.63;14.32;;;23.30;99.90;;;;;;5056231;28;20068;-69
2023/06/21 05:42:16;;;;;;;17.73;14.90;;;23.50;99.90;;;;;;5038588;28;20385;-78
2023/06/21 05:44:42;;;;;;;15.90;14.40;;;23.70;99.90;;;;;;5056136;28;20021;-60
2023/06/21 05:47:07;;;;;;;17.52;15.15;;;23.90;99.90;;;;;;5056379;28;20364;-64
2023/06/21 05:49:33;;;;;;;13.85;12.45;;;25.70;99.90;;;;;;5056458;28;20095;-63
2023/06/21 05:51:59;;;;;;;15.05;12.27;;;28.10;99.90;;;;;;5056191;28;20112;-64
2023/06/21 05:54:25;;;;;;;11.93;10.82;;;30.00;99.90;;;;;;5056301;28;20107;-64
2023/06/21 05:56:52;;;;;;;12.15;11.05;;;31.00;99.90;;;;;;5056420;28;20035;-64
2023/06/21 05:59:17;;;;;;;11.80;10.85;;;31.60;98.60;;;;;;5056149;28;20032;-64
2023/06/21 06:01:43;;;;;;;11.95;10.60;;;31.90;97.00;;;;;;5038858;28;20029;-63
2023/06/21 06:04:09;;;;;;;14.98;11.15;;;32.10;96.00;;;;;;5055942;28;20033;-63
2023/06/21 06:06:37;;;;;;;10.60;9.68;;;31.90;95.20;;;;;;5056210;28;20048;-64
2023/06/21 06:09:02;;;;;;;11.67;10.57;;;32.10;94.90;;;;;;5055705;28;20033;-62
2023/06/21 06:11:28;;;;;;;11.80;10.60;;;32.10;94.70;;;;;;5055851;28;20112;-62
2023/06/21 06:13:53;;;;;;;12.05;10.82;;;32.00;94.30;;;;;;5055712;28;20537;-63
2023/06/21 06:16:19;;;;;;;15.70;10.68;;;31.80;94.30;;;;;;5056007;28;20032;-62
2023/06/21 06:18:45;;;;;;;12.00;10.48;;;32.20;94.00;;;;;;5055462;28;20021;-61
2023/06/21 06:21:10;;;;;;;14.77;11.43;;;32.40;93.30;;;;;;5055667;28;20025;-62
2023/06/21 06:23:36;;;;;;;13.23;11.15;;;32.60;92.70;;;;;;5055921;28;20114;-61
2023/06/21 06:26:02;;;;;;;11.65;10.45;;;32.40;92.50;;;;;;5037707;28;20028;-62
2023/06/21 06:28:28;;;;;;;13.60;10.82;;;32.40;92.20;;;;;;5055587;28;20469;-62
2023/06/21 06:30:53;;;;;;;11.93;10.73;;;32.40;92.40;;;;;;5054898;28;20107;-61
2023/06/21 06:33:19;;;;;;;12.63;11.07;;;32.20;92.70;;;;;;5037534;28;20120;-61
2023/06/21 06:35:45;;;;;;;11.77;10.63;;;32.30;92.50;;;;;;5055461;28;20078;-62
2023/06/21 06:38:10;;;;;;;12.18;11.07;;;32.50;91.80;;;;;;5055623;28;20025;-62
2023/06/21 06:40:36;;;;;;;12.02;10.85;;;32.50;91.50;;;;;;5055287;28;20032;-62
2023/06/21 06:43:02;;;;;;;12.38;11.07;;;32.60;91.50;;;;;;5055576;28;20064;-61
2023/06/21 06:45:28;;;;;;;12.50;11.23;;;32.50;91.10;;;;;;5055213;28;20059;-62
2023/06/21 06:47:54;;;;;;;12.82;11.45;;;32.10;91.40;;;;;;5054954;28;20033;-63
2023/06/21 06:50:19;;;;;;;12.95;11.18;;;32.50;90.70;;;;;;5055173;28;20140;-63
2023/06/21 06:52:46;;;;;;;12.75;11.57;;;32.60;90.90;;;;;;5054981;28;20159;-61
2023/06/21 06:55:11;;;;;;;13.10;10.75;;;32.70;90.40;;;;;;5055072;28;20021;-60
2023/06/21 06:57:37;;;;;;;13.15;11.20;;;32.90;90.20;;;;;;5054739;28;20028;-60
2023/06/21 07:00:08;;;;;;;14.27;11.35;;;33.20;88.70;;;;;;5055149;28;20029;-60
2023/06/21 07:02:33;;;;;;;12.27;11.00;;;33.10;88.70;;;;;;5037239;28;20119;-62
2023/06/21 07:04:59;;;;;;;12.55;11.25;;;33.20;87.80;;;;;;5037021;28;20114;-61
2023/06/21 07:07:25;;;;;;;12.07;10.88;;;33.10;87.70;;;;;;5054572;28;20029;-61
2023/06/21 07:09:50;;;;;;;12.35;11.20;;;33.30;87.00;;;;;;5054818;28;20029;-61
2023/06/21 07:12:16;;;;;;;12.48;11.18;;;33.10;85.60;;;;;;5054940;28;20037;-60
2023/06/21 07:14:41;;;;;;;12.60;10.73;;;32.90;84.90;;;;;;5054696;28;20035;-62
2023/06/21 07:17:07;;;;;;;12.75;11.57;;;33.40;83.50;;;;;;5054495;28;20032;-62
2023/06/21 07:19:33;;;;;;;14.35;11.20;;;33.10;82.50;;;;;;5054592;28;20045;-62
2023/06/21 07:21:58;;;;;;;13.43;12.30;;;33.60;82.00;;;;;;5054587;28;20029;-63
2023/06/21 07:24:24;;;;;;;12.68;11.57;;;33.40;81.70;;;;;;5054539;28;20103;-62
2023/06/21 07:26:50;;;;;;;13.38;12.18;;;33.50;81.50;;;;;;5054486;28;20036;-63
2023/06/21 07:29:15;;;;;;;12.75;11.45;;;33.60;81.30;;;;;;5054066;28;20115;-63
2023/06/21 07:31:41;;;;;;;12.43;11.32;;;33.80;80.70;;;;;;5054378;28;20031;-63
2023/06/21 07:34:07;;;;;;;15.05;11.45;;;33.90;80.40;;;;;;5053971;28;20033;-63
2023/06/21 07:36:34;;;;;;;12.40;11.07;;;34.10;80.00;;;;;;5053975;28;20051;-63
2023/06/21 07:38:59;;;;;;;12.85;11.45;;;34.10;79.20;;;;;;5036869;28;20053;-63
2023/06/21 07:41:25;;;;;;;12.88;11.57;;;33.90;79.50;;;;;;5054273;28;20465;-63
2023/06/21 07:43:51;;;;;;;13.45;12.13;;;33.70;79.20;;;;;;5053909;28;20033;-63
2023/06/21 07:46:16;;;;;;;12.07;10.98;;;34.10;79.00;;;;;;5036242;28;20059;-63
2023/06/21 07:48:42;;;;;;;12.68;11.38;;;34.40;77.80;;;;;;5053952;28;20385;-63
2023/06/21 07:51:08;;;;;;;12.23;11.00;;;34.10;78.00;;;;;;5054153;28;20354;-62
2023/06/21 07:53:34;;;;;;;12.00;10.82;;;33.90;78.00;;;;;;5053883;28;20087;-62
2023/06/21 07:56:02;;;;;;;12.30;11.10;;;33.70;78.00;;;;;;5036099;28;20449;-63
2023/06/21 07:58:28;;;;;;;12.68;11.57;;;33.80;77.50;;;;;;5036118;28;20029;-62
2023/06/21 08:00:54;;;;;;;12.10;11.00;;;33.80;77.30;;;;;;5053928;28;20056;-63
2023/06/21 08:03:20;;;;;;;12.20;11.13;;;33.90;77.00;;;;;;5053876;28;20076;-62
2023/06/21 08:05:45;;;;;;;11.65;10.55;;;34.10;76.70;;;;;;5053863;28;20079;-63
2023/06/21 08:08:12;;;;;;;11.95;10.85;;;34.20;76.10;;;;;;5054119;28;20025;-63
2023/06/21 08:10:37;;;;;;;12.70;11.57;;;34.50;76.00;;;;;;5053803;28;20024;-62
2023/06/21 08:13:03;;;;;;;12.75;11.45;;;34.00;76.40;;;;;;5053392;28;20033;-63
2023/06/21 08:15:28;;;;;;;11.68;10.60;;;34.50;75.60;;;;;;5053758;28;20028;-63
2023/06/21 08:17:54;;;;;;;11.90;10.77;;;34.70;75.10;;;;;;5053423;28;20104;-63
2023/06/21 08:20:20;;;;;;;11.50;10.30;;;35.00;74.00;;;;;;5035819;28;20487;-62
2023/06/21 08:22:45;;;;;;;11.60;10.48;;;35.40;72.70;;;;;;5035801;28;20029;-62
2023/06/21 08:25:11;;;;;;;10.25;9.35;;;35.30;71.90;;;;;;5035773;28;20418;-63
2023/06/21 08:27:37;;;;;;;11.23;10.23;;;35.40;70.70;;;;;;5053509;28;20128;-63
2023/06/21 08:30:02;;;;;;;11.57;10.30;;;35.50;70.70;;;;;;5053287;28;20024;-63
2023/06/21 08:32:28;;;;;;;11.15;10.02;;;35.60;69.10;;;;;;5053498;28;20037;-63
2023/06/21 08:34:54;;;;;;;10.75;9.50;;;35.70;68.50;;;;;;5035743;28;20032;-63
2023/06/21 08:37:25;;;;;;;10.63;9.75;;;35.80;67.80;;;;;;5053237;28;20029;-63
2023/06/21 08:39:52;;;;;;;10.77;9.68;;;35.90;66.90;;;;;;5053479;28;20104;-63
2023/06/21 08:42:19;;;;;;;10.73;9.55;;;36.30;66.70;;;;;;5035574;28;20040;-64
2023/06/21 08:44:46;;;;;;;10.80;9.75;;;36.20;66.10;;;;;;5053527;28;20078;-64
2023/06/21 08:47:14;;;;;;;10.30;9.15;;;36.30;65.80;;;;;;5035495;28;20033;-64
2023/06/21 08:49:42;;;;;;;10.55;8.90;;;36.30;64.30;;;;;;5053468;28;20056;-64
2023/06/21 08:52:13;;;;;;;11.15;9.43;;;36.60;63.90;;;;;;5073016;28;20028;-64
2023/06/21 08:54:43;;;;;;;12.73;8.13;;;36.50;64.10;;;;;;5077087;28;20028;-64
2023/06/21 08:57:22;;;;;;;11.48;10.25;;;36.80;62.90;;;;;;5077063;28;20100;-65
2023/06/21 08:59:52;;;;;;;8.73;7.93;;;36.80;61.50;;;;;;5077311;28;20027;-64
2023/06/21 09:02:39;;;;;;;11.98;8.20;;;36.10;61.80;;;;;;5077303;28;20110;-64
2023/06/21 09:05:09;;;;;;;9.52;8.10;;;36.30;60.20;;;;;;5077014;28;20040;-65
2023/06/21 09:07:37;;;;;;;11.23;6.57;;;37.10;59.80;;;;;;5077298;28;20036;-64
2023/06/21 09:10:03;;;;;;;7.93;6.28;;;37.40;57.60;;;;;;5076927;28;20036;-64
2023/06/21 09:12:32;;;;;;;8.30;6.95;;;37.10;56.90;;;;;;5077178;28;20036;-64
2023/06/21 09:14:58;;;;;;;9.75;7.20;;;37.70;57.00;;;;;;5076932;28;20031;-64
2023/06/21 09:17:25;;;;;;;10.25;6.82;;;37.10;57.30;;;;;;5076660;28;20028;-65
2023/06/21 09:19:52;;;;;;;9.13;6.40;;;37.40;54.50;;;;;;5075673;28;20031;-64
2023/06/21 09:22:18;;;;;;;9.15;6.43;;;37.70;53.80;;;;;;5076850;28;20025;-64
2023/06/21 09:24:44;;;;;;;9.18;5.78;;;38.20;53.50;;;;;;5076873;28;20031;-64
2023/06/21 09:27:10;;;;;;;9.98;6.15;;;37.90;52.30;;;;;;5075852;28;20033;-64
2023/06/21 09:29:37;;;;;;;10.73;6.60;;;37.50;52.10;;;;;;5076809;28;20103;-64
2023/06/21 09:32:03;;;;;;;5.85;5.25;;;37.90;51.70;;;;;;5076516;28;20021;-64
2023/06/21 09:34:28;;;;;;;7.30;5.38;;;38.00;51.00;;;;;;5075334;28;20368;-64
2023/06/21 09:36:54;;;;;;;6.55;5.88;;;38.10;51.10;;;;;;5076630;28;20021;-64
2023/06/21 09:39:22;;;;;;;9.88;5.60;;;38.10;51.30;;;;;;5076440;28;20035;-62
2023/06/21 09:41:48;;;;;;;10.95;4.78;;;38.50;50.80;;;;;;5075243;28;20078;-74
2023/06/21 09:44:14;;;;;;;8.65;4.50;;;38.50;47.20;;;;;;5075052;28;20032;-73
2023/06/21 09:46:40;;;;;;;7.45;4.70;;;38.10;47.40;;;;;;5076891;28;20035;-72
2023/06/21 09:49:09;;;;;;;13.65;5.20;;;38.00;47.90;;;;;;5074929;28;20134;-73
2023/06/21 09:51:43;;;;;;;11.30;5.25;;;38.50;47.20;;;;;;5077355;28;20103;-74
2023/06/21 09:54:08;;;;;;;10.27;5.30;;;38.90;46.70;;;;;;5079393;28;20055;-74
2023/06/21 09:56:37;;;;;;;9.40;4.82;;;39.10;46.40;;;;;;5080098;28;20368;-74
2023/06/21 09:59:03;;;;;;;10.10;4.95;;;39.60;46.00;;;;;;5078084;28;20468;-74
2023/06/21 10:01:37;;;;;;;8.90;5.28;;;40.00;45.90;;;;;;5075274;28;20074;-74
2023/06/21 10:04:08;;;;;;;8.48;5.43;;;39.50;46.70;;;;;;5074772;28;20468;-74
2023/06/21 10:06:34;;;;;;;9.05;5.40;;;39.90;45.80;;;;;;5075048;28;20029;-74
2023/06/21 10:09:00;;;;;;;7.93;5.18;;;40.00;44.30;;;;;;5076085;28;20108;-74
2023/06/21 10:11:26;;;;;;;12.23;5.53;;;39.80;44.80;;;;;;5075804;28;20025;-74
2023/06/21 10:13:53;;;;;;;9.77;5.85;;;40.00;45.10;;;;;;5075832;28;20392;-74
2023/06/21 10:16:21;;;;;;;9.18;6.32;;;39.70;45.80;;;;;;5075688;28;20064;-74
2023/06/21 10:18:49;;;;;;;8.90;6.50;;;40.10;45.70;;;;;;5075003;28;20392;-74
2023/06/21 10:21:19;;;;;;;6.95;5.32;;;40.10;46.00;;;;;;5075473;28;20487;-74
2023/06/21 10:23:48;;;;;;;13.93;6.30;;;40.50;46.00;;;;;;5076936;28;20032;-74
2023/06/21 10:26:16;;;;;;;16.27;5.82;;;40.30;43.30;;;;;;5075768;28;20372;-74
2023/06/21 10:28:45;;;;;;;12.57;7.80;;;39.60;44.10;;;;;;5075869;28;20027;-74
2023/06/21 10:31:12;;;;;;;10.05;5.05;;;39.50;44.40;;;;;;5075820;28;20029;-74
2023/06/21 10:33:39;;;;;;;10.95;5.65;;;39.30;44.40;;;;;;5074346;28;20040;-74
2023/06/21 10:36:10;;;;;;;13.50;6.20;;;38.90;44.20;;;;;;5074343;28;20029;-74
2023/06/21 10:38:48;;;;;;;11.50;6.00;;;38.60;45.20;;;;;;5075748;28;20107;-74
2023/06/21 10:41:15;;;;;;;10.88;4.88;;;39.10;45.00;;;;;;5075477;28;20464;-74
2023/06/21 10:43:42;;;;;;;8.85;4.70;;;39.20;44.60;;;;;;5075393;28;20028;-74
2023/06/21 10:46:10;;;;;;;17.17;5.25;;;39.50;43.30;;;;;;5074033;28;20024;-74
2023/06/21 10:48:36;;;;;;;12.10;5.45;;;39.70;43.50;;;;;;5071843;28;20028;-74
2023/06/21 10:51:03;;;;;;;8.82;5.50;;;39.50;43.50;;;;;;5055100;28;20032;-74
2023/06/21 10:53:33;;;;;;;11.90;5.68;;;39.50;44.20;;;;;;5055128;28;20041;-74
2023/06/21 10:56:07;;;;;;;9.45;5.70;;;39.90;43.70;;;;;;5055225;28;20035;-74
2023/06/21 10:58:33;;;;;;;11.55;5.82;;;39.70;43.20;;;;;;5055414;28;20025;-73
2023/06/21 11:00:59;;;;;;;10.07;5.10;;;39.70;43.10;;;;;;5054801;28;20047;-74
2023/06/21 11:03:28;;;;;;;10.30;5.60;;;39.70;43.20;;;;;;5055020;28;20029;-74
2023/06/21 11:06:22;;;;;;;13.38;6.00;;;39.90;43.30;;;;;;5054995;28;20028;-73
2023/06/21 11:08:48;;;;;;;9.07;6.20;;;38.90;44.40;;;;;;5054995;28;20107;-74
2023/06/21 11:11:36;;;;;;;11.23;6.18;;;39.00;43.90;;;;;;5037072;28;20029;-74
2023/06/21 11:14:03;;;;;;;10.38;6.00;;;38.60;43.80;;;;;;5037235;28;20041;-74
2023/06/21 11:16:32;;;;;;;10.57;5.45;;;38.90;44.40;;;;;;5036429;28;20047;-74
2023/06/21 11:19:10;;;;;;;10.90;5.30;;;38.50;44.80;;;;;;5054703;28;20025;-74
2023/06/21 11:21:44;;;;;;;9.73;5.80;;;37.60;43.90;;;;;;5054718;28;20028;-74
2023/06/21 11:24:11;;;;;;;8.07;4.78;;;37.10;45.50;;;;;;5037176;28;20119;-74
2023/06/21 11:27:03;;;;;;;9.65;5.40;;;36.90;46.80;;;;;;5054631;28;20029;-74
2023/06/21 11:29:37;;;;;;;10.70;5.55;;;36.70;51.20;;;;;;5054273;28;20061;-74
2023/06/21 11:32:13;;;;;;;11.98;4.97;;;36.40;50.80;;;;;;5036400;28;20077;-74
2023/06/21 11:34:59;;;;;;;11.60;5.63;;;36.10;51.90;;;;;;5054484;28;20057;-74
2023/06/21 11:37:33;;;;;;;9.93;5.07;;;36.30;53.10;;;;;;5054514;28;20104;-74
2023/06/21 11:40:01;;;;;;;12.40;4.60;;;37.10;48.40;;;;;;5054349;28;20036;-74
2023/06/21 11:42:32;;;;;;;14.85;5.15;;;38.20;46.90;;;;;;5054036;28;20037;-74
2023/06/21 11:45:24;;;;;;;12.38;4.65;;;38.80;44.00;;;;;;5036478;28;20495;-74
2023/06/21 11:48:02;;;;;;;9.60;5.18;;;39.90;42.80;;;;;;5054168;28;20039;-73
2023/06/21 11:50:36;;;;;;;12.88;5.15;;;40.00;42.30;;;;;;5053722;28;20049;-74
2023/06/21 11:53:20;;;;;;;17.05;5.22;;;40.00;40.30;;;;;;5054012;28;20041;-73
2023/06/21 11:55:48;;;;;;;12.55;5.20;;;40.20;41.00;;;;;;5036349;28;20028;-74
2023/06/21 11:58:14;;;;;;;11.50;4.07;;;40.50;41.10;;;;;;5036450;28;20051;-74
2023/06/21 12:00:41;;;;;;;11.20;5.10;;;41.30;38.50;;;;;;5053833;28;20047;-74
2023/06/21 12:03:09;;;;;;;8.07;4.45;;;41.60;38.10;;;;;;5054160;28;20025;-74
2023/06/21 12:05:50;;;;;;;10.40;4.82;;;41.40;38.70;;;;;;5054297;28;20033;-74
2023/06/21 12:08:19;;;;;;;11.07;4.72;;;41.70;40.00;;;;;;5054187;28;20483;-74
2023/06/21 12:10:46;;;;;;;14.05;5.60;;;42.10;40.20;;;;;;5053880;28;20024;-74
2023/06/21 12:13:13;;;;;;;15.95;4.70;;;42.00;39.20;;;;;;5035823;28;20076;-74
2023/06/21 12:15:59;;;;;;;;;;;42.30;39.20;;;;;;5054370;28;20113;-74
2023/06/21 12:18:26;;;;;;;11.80;5.10;;;42.20;39.00;;;;;;5053393;28;19958;-74
2023/06/21 12:20:58;;;;;;;14.90;5.85;;;42.70;39.00;;;;;;5054116;28;20040;-74
2023/06/21 12:23:24;;;;;;;9.13;4.95;;;42.60;38.90;;;;;;5053828;28;20044;-74
2023/06/21 12:25:56;;;;;;;11.77;5.00;;;41.50;38.40;;;;;;5053862;28;20117;-74
2023/06/21 12:28:23;;;;;;;9.55;5.32;;;41.00;39.20;;;;;;5052859;28;20025;-74
2023/06/21 12:30:50;;;;;;;9.23;4.72;;;41.10;39.30;;;;;;5053737;28;20025;-74
2023/06/21 12:33:17;;;;;;;10.55;5.07;;;41.50;38.60;;;;;;5035999;28;20086;-74